Time;durP1;ratioP1;P1;durP2;ratioP2;P2;SDS_P1;SDS_P2;PMS_P1;PMS_P2;Temp;Humidity;BMP_temperature;BMP_pressure;BME280_temperature;BME280_humidity;BME280_pressure;Samples;Min_cycle;Max_cycle;Signal;HPM_P1;HPM_P2
2023/07/16 00:02:23;;;;;;;8.45;4.47;;;;;;;21.01;100.00;96565.09;4997334;28;20712;-67
2023/07/16 00:04:48;;;;;;;10.98;5.38;;;;;;;20.98;100.00;96575.13;5002101;28;20116;-67
2023/07/16 00:07:14;;;;;;;15.68;5.38;;;;;;;20.96;100.00;96590.72;4996559;28;20141;-67
2023/07/16 00:09:39;;;;;;;9.05;5.28;;;;;;;21.02;100.00;96579.81;4992100;28;20054;-68
2023/07/16 00:12:05;;;;;;;14.20;5.05;;;;;;;21.09;100.00;96587.97;4977159;28;20088;-63
2023/07/16 00:14:30;;;;;;;8.52;5.10;;;;;;;21.06;100.00;96588.84;4964272;28;20042;-65
2023/07/16 00:16:56;;;;;;;17.85;6.07;;;;;;;21.05;100.00;96578.94;4981550;28;20137;-66
2023/07/16 00:19:21;;;;;;;8.48;4.50;;;;;;;21.05;100.00;96578.94;4977991;28;20054;-66
2023/07/16 00:21:46;;;;;;;9.50;4.88;;;;;;;21.02;100.00;96575.03;4963882;28;20077;-67
2023/07/16 00:24:12;;;;;;;13.50;5.32;;;;;;;21.03;100.00;96578.59;4980621;28;20042;-67
2023/07/16 00:26:37;;;;;;;9.98;4.50;;;;;;;21.06;100.00;96584.06;4993395;28;20551;-67
2023/07/16 00:29:03;;;;;;;7.72;4.30;;;;;;;21.14;100.00;96584.63;4999588;28;20557;-66
2023/07/16 00:31:28;;;;;;;11.13;4.63;;;;;;;21.07;100.00;96590.41;5000470;28;20042;-67
2023/07/16 00:33:53;;;;;;;9.88;4.13;;;;;;;20.75;100.00;96603.19;5001786;28;20034;-67
2023/07/16 00:36:19;;;;;;;6.30;4.03;;;;;;;20.80;100.00;96605.44;4975413;28;20046;-66
2023/07/16 00:38:45;;;;;;;6.35;3.92;;;;;;;20.76;100.00;96607.50;4963565;28;20138;-66
2023/07/16 00:41:12;;;;;;;5.53;3.50;;;;;;;20.76;100.00;96610.28;4958514;28;20082;-66
2023/07/16 00:43:38;;;;;;;4.78;2.78;;;;;;;20.88;100.00;96619.94;4977907;28;20042;-66
2023/07/16 00:46:03;;;;;;;6.25;3.03;;;;;;;20.78;100.00;96622.56;4978728;28;20510;-65
2023/07/16 00:48:29;;;;;;;7.03;3.20;;;;;;;20.65;100.00;96607.78;4982846;28;20462;-65
2023/07/16 00:50:56;;;;;;;4.35;2.72;;;;;;;20.73;100.00;96598.03;4964887;28;20106;-66
2023/07/16 00:53:22;;;;;;;6.05;3.70;;;;;;;20.75;100.00;96606.75;4958463;28;20073;-66
2023/07/16 00:55:48;;;;;;;5.40;3.08;;;;;;;20.63;100.00;96613.00;4962927;28;20395;-66
2023/07/16 00:58:13;;;;;;;4.82;3.15;;;;;;;20.81;100.00;96626.47;4957166;28;20054;-67
2023/07/16 01:00:40;;;;;;;6.90;3.42;;;;;;;20.61;100.00;96629.34;4962817;28;20126;-68
2023/07/16 01:03:08;;;;;;;4.28;3.00;;;;;;;20.62;100.00;96628.94;4957245;28;20051;-68
2023/07/16 01:05:43;;;;;;;5.15;2.63;;;;;;;20.40;100.00;96645.31;4963074;28;20047;-67
2023/07/16 01:08:11;;;;;;;4.50;2.35;;;;;;;20.43;100.00;96652.00;4958064;28;20126;-67
2023/07/16 01:10:38;;;;;;;5.10;2.50;;;;;;;20.21;100.00;96643.38;4978428;28;20141;-67
2023/07/16 01:13:04;;;;;;;4.65;2.30;;;;;;;20.14;100.00;96643.53;4978282;28;20038;-66
2023/07/16 01:15:29;;;;;;;3.83;1.85;;;;;;;20.16;100.00;96647.44;4980726;28;20113;-67
2023/07/16 01:17:55;;;;;;;4.85;1.90;;;;;;;20.07;100.00;96650.03;4981276;28;20046;-68
2023/07/16 01:20:20;;;;;;;3.85;2.13;;;;;;;19.95;100.00;96647.91;4975979;28;20038;-67
2023/07/16 01:23:30;;;;;;;4.43;2.00;;;;;;;19.85;100.00;96649.72;4981889;28;20073;-68
2023/07/16 01:26:02;;;;;;;4.65;1.80;;;;;;;19.80;100.00;96669.69;5006715;28;20112;-67
2023/07/16 01:29:04;;;;;;;3.63;1.85;;;;;;;19.81;100.00;96663.69;5004613;28;20043;-67
2023/07/16 01:31:32;;;;;;;5.05;1.90;;;;;;;19.75;100.00;96661.84;5024863;28;20537;-68
2023/07/16 01:33:59;;;;;;;3.75;2.28;;;;;;;19.76;100.00;96661.41;5024842;28;20033;-67
2023/07/16 01:36:26;;;;;;;4.00;2.60;;;;;;;19.77;100.00;96649.09;5007997;28;20621;-68
2023/07/16 01:38:52;;;;;;;4.63;1.50;;;;;;;19.82;100.00;96647.81;5006313;28;20147;-68
2023/07/16 01:41:18;;;;;;;3.35;1.70;;;;;;;19.90;100.00;96656.75;5001976;28;20125;-67
2023/07/16 01:43:43;;;;;;;7.25;1.92;;;;;;;19.85;100.00;96658.84;5003785;28;20034;-67
2023/07/16 01:46:09;;;;;;;3.22;1.73;;;;;;;19.67;100.00;96653.63;4998612;28;20041;-67
2023/07/16 01:48:36;;;;;;;2.80;1.73;;;;;;;19.60;100.00;96670.44;5004390;28;20933;-66
2023/07/16 01:51:03;;;;;;;1.83;1.30;;;;;;;19.24;100.00;96690.56;4984927;28;20541;-65
2023/07/16 01:53:28;;;;;;;5.25;1.65;;;;;;;19.03;100.00;96707.59;4983536;28;20053;-67
2023/07/16 01:55:54;;;;;;;3.95;1.60;;;;;;;18.89;100.00;96703.06;4985324;28;20492;-66
2023/07/16 01:58:19;;;;;;;3.47;1.65;;;;;;;18.71;100.00;96708.88;4979927;28;20069;-66
2023/07/16 02:00:45;;;;;;;2.60;1.52;;;;;;;18.36;100.00;96719.28;4985221;28;20049;-66
2023/07/16 02:03:11;;;;;;;2.97;1.40;;;;;;;18.22;100.00;96725.03;4979896;28;20423;-67
2023/07/16 02:05:36;;;;;;;5.28;1.70;;;;;;;18.24;100.00;96730.94;4983595;28;20145;-66
2023/07/16 02:08:02;;;;;;;4.03;1.77;;;;;;;17.99;100.00;96720.97;4983401;28;20188;-66
2023/07/16 02:10:27;;;;;;;2.63;1.50;;;;;;;17.82;100.00;96719.16;4981140;28;20133;-67
2023/07/16 02:12:52;;;;;;;2.90;1.40;;;;;;;17.85;100.00;96719.16;4984792;28;20092;-67
2023/07/16 02:15:18;;;;;;;2.25;1.45;;;;;;;17.81;100.00;96715.63;4980020;28;20097;-69
2023/07/16 02:17:44;;;;;;;4.45;1.80;;;;;;;17.73;100.00;96716.91;4984292;28;20168;-69
2023/07/16 02:20:10;;;;;;;5.65;2.10;;;;;;;17.60;100.00;96719.41;4978721;28;20792;-69
2023/07/16 02:22:36;;;;;;;4.30;1.80;;;;;;;17.58;100.00;96721.81;4985008;28;20038;-68
2023/07/16 02:25:02;;;;;;;2.70;1.65;;;;;;;17.61;100.00;96726.53;5004669;28;20049;-68
2023/07/16 02:27:28;;;;;;;4.20;1.80;;;;;;;17.53;100.00;96711.19;5015757;28;20045;-68
2023/07/16 02:29:54;;;;;;;4.47;1.60;;;;;;;17.51;100.00;96716.34;5024101;28;20038;-68
2023/07/16 02:32:19;;;;;;;4.25;1.35;;;;;;;17.58;100.00;96717.06;5018170;28;20038;-68
2023/07/16 02:34:44;;;;;;;2.55;1.55;;;;;;;17.47;100.00;96713.63;5023432;28;20136;-68
2023/07/16 02:37:10;;;;;;;1.85;1.10;;;;;;;17.60;100.00;96715.88;5004294;28;20046;-68
2023/07/16 02:39:35;;;;;;;5.03;1.52;;;;;;;17.61;100.00;96731.28;4984054;28;20046;-68
2023/07/16 02:42:01;;;;;;;2.92;1.20;;;;;;;17.64;100.00;96736.00;4986543;28;20115;-67
2023/07/16 02:44:26;;;;;;;2.22;1.38;;;;;;;17.63;100.00;96742.72;4998688;28;20505;-68
2023/07/16 02:46:51;;;;;;;4.20;1.92;;;;;;;17.57;100.00;96750.69;5002982;28;20033;-67
2023/07/16 02:49:17;;;;;;;3.28;1.52;;;;;;;17.47;100.00;96751.59;4992723;28;20502;-67
2023/07/16 02:51:42;;;;;;;2.50;1.30;;;;;;;17.47;100.00;96757.94;4984415;28;20145;-67
2023/07/16 02:54:08;;;;;;;4.70;1.60;;;;;;;17.48;100.00;96764.25;4979086;28;20061;-67
2023/07/16 02:56:34;;;;;;;2.08;1.30;;;;;;;17.52;100.00;96776.06;4979079;28;20042;-67
2023/07/16 02:58:59;;;;;;;3.53;1.70;;;;;;;17.66;100.00;96781.44;4983969;28;20058;-66
2023/07/16 03:01:25;;;;;;;2.78;1.70;;;;;;;17.73;100.00;96784.16;4979415;28;20054;-65
2023/07/16 03:03:51;;;;;;;6.50;1.80;;;;;;;17.63;100.00;96784.25;4983501;28;20053;-66
2023/07/16 03:06:16;;;;;;;4.65;1.75;;;;;;;17.61;100.00;96784.69;4978047;28;20077;-66
2023/07/16 03:08:41;;;;;;;2.47;1.35;;;;;;;17.68;100.00;96783.81;4984150;28;20046;-66
2023/07/16 03:11:07;;;;;;;2.85;1.67;;;;;;;17.71;100.00;96794.06;4979171;28;20133;-67
2023/07/16 03:13:32;;;;;;;4.75;1.60;;;;;;;17.83;100.00;96796.31;4982962;28;20505;-67
2023/07/16 03:15:58;;;;;;;3.17;1.90;;;;;;;17.95;100.00;96797.78;4984209;28;20131;-67
2023/07/16 03:18:28;;;;;;;2.30;1.48;;;;;;;17.87;100.00;96777.72;4978921;28;20338;-67
2023/07/16 03:20:53;;;;;;;2.38;1.40;;;;;;;17.72;100.00;96776.28;4983202;28;20038;-67
2023/07/16 03:23:19;;;;;;;2.55;1.40;;;;;;;17.61;100.00;96767.28;4978431;28;20047;-67
2023/07/16 03:25:44;;;;;;;4.10;1.60;;;;;;;17.77;100.00;96761.94;5008784;28;20041;-66
2023/07/16 03:28:10;;;;;;;5.80;1.70;;;;;;;17.72;100.00;96774.28;5017269;28;20068;-66
2023/07/16 03:30:37;;;;;;;2.20;1.20;;;;;;;17.53;100.00;96763.78;5022945;28;20045;-67
2023/07/16 03:33:03;;;;;;;3.13;1.48;;;;;;;17.48;100.00;96767.78;5021065;28;20076;-66
2023/07/16 03:35:28;;;;;;;3.95;1.67;;;;;;;17.37;100.00;96767.13;5026103;28;20041;-66
2023/07/16 03:37:53;;;;;;;2.42;1.45;;;;;;;17.25;100.00;96773.97;5008142;28;20073;-67
2023/07/16 03:40:25;;;;;;;3.28;2.00;;;;;;;17.18;100.00;96779.56;4983935;28;20050;-67
2023/07/16 03:42:50;;;;;;;4.18;1.77;;;;;;;17.22;100.00;96769.22;4997896;28;20149;-67
2023/07/16 03:45:16;;;;;;;2.45;1.73;;;;;;;17.32;100.00;96771.13;4997971;28;20660;-67
2023/07/16 03:47:42;;;;;;;3.55;1.90;;;;;;;17.39;100.00;96784.91;5003429;28;20111;-67
2023/07/16 03:50:07;;;;;;;4.95;2.13;;;;;;;17.16;100.00;96804.06;4987728;28;20061;-66
2023/07/16 03:52:33;;;;;;;3.58;1.67;;;;;;;17.22;100.00;96807.19;4985997;28;20499;-66
2023/07/16 03:54:59;;;;;;;2.47;1.38;;;;;;;17.15;100.00;96799.72;4986205;28;20085;-67
2023/07/16 03:57:24;;;;;;;2.50;1.50;;;;;;;17.48;100.00;96808.53;4977624;28;21030;-68
2023/07/16 03:59:49;;;;;;;3.10;1.48;;;;;;;17.63;100.00;96806.41;4983981;28;20053;-68
2023/07/16 04:02:15;;;;;;;3.25;1.52;;;;;;;17.73;100.00;96797.22;4981234;28;20043;-67
2023/07/16 04:04:40;;;;;;;2.72;1.35;;;;;;;17.84;100.00;96789.56;4982593;28;20405;-68
2023/07/16 04:07:05;;;;;;;3.13;1.45;;;;;;;17.84;100.00;96789.56;4960942;28;20041;-66
2023/07/16 04:09:31;;;;;;;4.35;1.92;;;;;;;17.74;100.00;96801.56;4981131;28;20050;-67
2023/07/16 04:11:56;;;;;;;7.65;1.55;;;;;;;17.70;100.00;96807.16;4982606;28;20046;-67
2023/07/16 04:14:22;;;;;;;4.47;1.90;;;;;;;17.48;100.00;96809.31;4978436;28;20058;-67
2023/07/16 04:16:48;;;;;;;4.35;1.65;;;;;;;17.46;100.00;96808.16;4981239;28;20488;-67
2023/07/16 04:19:13;;;;;;;4.78;1.83;;;;;;;17.44;100.00;96818.88;4977793;28;20606;-68
2023/07/16 04:21:39;;;;;;;5.75;1.60;;;;;;;17.29;100.00;96826.53;4982628;28;20073;-67
2023/07/16 04:24:05;;;;;;;4.22;2.08;;;;;;;17.17;100.00;96825.00;4982962;28;20033;-64
2023/07/16 04:26:31;;;;;;;2.25;1.50;;;;;;;17.08;100.00;96833.00;5011008;28;20051;-67
2023/07/16 04:28:57;;;;;;;3.40;1.85;;;;;;;16.91;100.00;96841.00;4995523;28;20042;-67
2023/07/16 04:31:22;;;;;;;3.38;1.88;;;;;;;16.93;100.00;96841.38;4977526;28;20237;-68
2023/07/16 04:33:48;;;;;;;2.10;1.40;;;;;;;16.89;100.00;96843.41;4997261;28;20065;-67
2023/07/16 04:36:13;;;;;;;2.85;1.50;;;;;;;16.90;100.00;96838.66;4997593;28;20509;-67
2023/07/16 04:38:38;;;;;;;4.05;1.52;;;;;;;16.95;100.00;96835.47;5001905;28;20116;-67
2023/07/16 04:41:04;;;;;;;3.00;1.60;;;;;;;17.11;100.00;96846.03;5003056;28;20042;-65
2023/07/16 04:43:29;;;;;;;2.83;1.75;;;;;;;17.10;100.00;96853.53;4979955;28;20046;-67
2023/07/16 04:45:55;;;;;;;3.85;1.80;;;;;;;17.07;100.00;96861.84;5002054;28;20076;-67
2023/07/16 04:48:20;;;;;;;3.35;1.60;;;;;;;16.94;100.00;96856.81;4988960;28;20046;-68
2023/07/16 04:50:45;;;;;;;3.88;1.50;;;;;;;17.15;100.00;96860.63;4999536;28;20046;-67
2023/07/16 04:53:11;;;;;;;3.22;1.83;;;;;;;17.19;100.00;96873.22;4996941;28;20084;-69
2023/07/16 04:55:38;;;;;;;4.40;1.98;;;;;;;17.27;100.00;96859.31;5001251;28;20157;-69
2023/07/16 04:58:03;;;;;;;4.60;1.92;;;;;;;17.18;100.00;96834.91;5000218;28;20042;-67
2023/07/16 05:00:30;;;;;;;4.25;1.95;;;;;;;17.08;100.00;96839.31;5005127;28;20038;-68
2023/07/16 05:02:56;;;;;;;2.55;1.60;;;;;;;17.21;100.00;96861.75;5005700;28;20049;-69
2023/07/16 05:05:21;;;;;;;8.30;2.15;;;;;;;17.05;100.00;96864.22;5001066;28;20050;-68
2023/07/16 05:07:47;;;;;;;3.10;1.55;;;;;;;16.91;100.00;96881.72;5007933;28;20337;-68
2023/07/16 05:10:12;;;;;;;3.65;2.15;;;;;;;16.85;100.00;96878.56;5005821;28;20073;-68
2023/07/16 05:12:38;;;;;;;5.72;2.00;;;;;;;16.67;100.00;96884.16;5005821;28;20128;-68
2023/07/16 05:15:03;;;;;;;5.18;1.85;;;;;;;16.71;100.00;96881.38;5003296;28;20045;-66
2023/07/16 05:17:29;;;;;;;3.35;1.90;;;;;;;16.67;100.00;96870.34;5003863;28;20450;-68
2023/07/16 05:19:54;;;;;;;3.00;1.70;;;;;;;16.79;100.00;96875.41;5005613;28;20407;-68
2023/07/16 05:22:20;;;;;;;3.50;1.80;;;;;;;16.71;100.00;96873.09;5000470;28;20163;-68
2023/07/16 05:24:45;;;;;;;4.85;2.20;;;;;;;16.90;100.00;96875.38;5013137;28;20048;-67
2023/07/16 05:27:10;;;;;;;4.18;1.55;;;;;;;17.06;100.00;96883.19;5011760;28;20037;-67
2023/07/16 05:29:36;;;;;;;5.78;1.80;;;;;;;16.96;100.00;96873.78;5025675;28;20203;-67
2023/07/16 05:32:02;;;;;;;4.05;1.40;;;;;;;17.08;100.00;96880.81;5024270;28;20096;-67
2023/07/16 05:34:27;;;;;;;3.58;1.52;;;;;;;17.09;100.00;96870.56;5020319;28;20030;-67
2023/07/16 05:36:54;;;;;;;2.85;1.50;;;;;;;17.11;100.00;96865.41;5023931;28;20367;-67
2023/07/16 05:39:20;;;;;;;4.63;1.58;;;;;;;17.24;100.00;96868.47;5020229;28;20037;-68
2023/07/16 05:41:45;;;;;;;4.47;2.08;;;;;;;17.53;100.00;96871.78;5020680;28;20513;-67
2023/07/16 05:44:10;;;;;;;3.83;1.65;;;;;;;17.63;100.00;96870.13;5000200;28;20033;-66
2023/07/16 05:46:36;;;;;;;6.15;1.88;;;;;;;17.28;100.00;96874.75;5004882;28;20503;-66
2023/07/16 05:49:02;;;;;;;4.05;1.50;;;;;;;17.00;100.00;96877.31;5009970;28;20042;-67
2023/07/16 05:51:27;;;;;;;3.78;1.52;;;;;;;17.42;100.00;96882.19;4983023;28;20050;-64
2023/07/16 05:53:52;;;;;;;3.70;1.52;;;;;;;17.74;100.00;96885.47;5007251;28;20041;-65
2023/07/16 05:56:18;;;;;;;3.80;1.65;;;;;;;17.37;100.00;96870.31;5011320;28;20034;-65
2023/07/16 05:58:43;;;;;;;6.05;1.60;;;;;;;17.53;100.00;96867.03;5002605;28;20475;-65
2023/07/16 06:01:08;;;;;;;4.05;1.60;;;;;;;17.76;100.00;96869.22;4999042;28;20050;-66
2023/07/16 06:03:34;;;;;;;3.05;1.60;;;;;;;17.91;100.00;96877.41;5004323;28;20513;-66
2023/07/16 06:05:59;;;;;;;3.97;1.42;;;;;;;18.38;100.00;96886.00;5004117;28;20049;-67
2023/07/16 06:08:25;;;;;;;3.28;1.40;;;;;;;18.81;100.00;96879.97;5001385;28;20547;-66
2023/07/16 06:10:51;;;;;;;4.25;1.58;;;;;;;19.32;100.00;96870.91;4986189;28;20046;-66
2023/07/16 06:13:16;;;;;;;5.13;3.08;;;;;;;19.10;100.00;96857.34;4998984;28;20049;-67
2023/07/16 06:15:42;;;;;;;5.40;3.17;;;;;;;18.62;100.00;96850.88;5004873;28;20042;-67
2023/07/16 06:18:09;;;;;;;3.58;2.03;;;;;;;17.54;100.00;96848.47;5006796;23;20022;-72
2023/07/16 06:20:34;;;;;;;3.75;1.85;;;;;;;17.47;100.00;96868.69;4973620;28;20047;-70
2023/07/16 06:22:59;;;;;;;4.85;1.92;;;;;;;17.66;100.00;96842.38;4983246;28;20054;-69
2023/07/16 06:25:25;;;;;;;3.03;1.45;;;;;;;17.87;100.00;96835.88;4965679;28;20046;-69
2023/07/16 06:27:50;;;;;;;3.17;1.67;;;;;;;18.40;100.00;96838.47;4969622;28;20130;-71
2023/07/16 06:30:16;;;;;;;4.85;2.10;;;;;;;18.77;100.00;96834.03;4942702;29;20043;-71
2023/07/16 06:32:41;;;;;;;3.70;1.83;;;;;;;19.03;100.00;96822.19;4946220;29;20114;-68
2023/07/16 06:35:08;;;;;;;2.33;1.45;;;;;;;19.08;100.00;96820.91;4923541;29;20054;-69
2023/07/16 06:37:33;;;;;;;2.97;1.40;;;;;;;19.31;100.00;96845.16;4928936;29;20049;-68
2023/07/16 06:39:59;;;;;;;3.20;1.45;;;;;;;19.58;100.00;96842.31;4947060;28;20051;-70
2023/07/16 06:42:24;;;;;;;14.55;9.18;;;;;;;19.87;100.00;96844.63;4941498;28;20055;-68
2023/07/16 06:44:49;;;;;;;2.35;1.48;;;;;;;19.96;100.00;96838.50;4947284;28;20075;-71
2023/07/16 06:47:15;;;;;;;3.50;1.55;;;;;;;20.11;100.00;96828.69;4960555;28;20038;-68
2023/07/16 06:49:40;;;;;;;3.53;1.63;;;;;;;20.24;100.00;96834.41;4956777;28;20047;-68
2023/07/16 06:52:06;;;;;;;5.43;1.30;;;;;;;21.30;100.00;96845.66;4943168;29;20054;-70
2023/07/16 06:54:31;;;;;;;2.53;1.40;;;;;;;23.47;91.95;96847.63;4950711;29;20053;-70
2023/07/16 06:56:57;;;;;;;3.72;1.00;;;;;;;25.32;76.96;96849.81;4930605;29;20043;-70
2023/07/16 06:59:22;;;;;;;3.65;1.02;;;;;;;26.55;68.67;96850.28;4930429;28;20063;-70
2023/07/16 07:01:48;;;;;;;1.73;1.02;;;;;;;26.38;63.94;96845.00;4972622;28;20121;-70
2023/07/16 07:04:13;;;;;;;2.60;1.10;;;;;;;26.50;61.75;96834.84;4962473;28;20050;-70
2023/07/16 07:06:38;;;;;;;3.13;0.90;;;;;;;26.98;58.82;96835.06;4968425;28;20074;-71
2023/07/16 07:09:04;;;;;;;4.13;1.17;;;;;;;26.88;59.10;96825.91;4965275;28;20097;-70
2023/07/16 07:11:31;;;;;;;2.00;0.98;;;;;;;27.84;55.64;96822.47;4966348;28;20070;-70
2023/07/16 07:13:57;;;;;;;2.10;1.10;;;;;;;27.56;55.33;96826.72;4966308;28;20051;-71
2023/07/16 07:16:24;;;;;;;1.90;1.08;;;;;;;27.30;56.29;96829.19;4963008;28;20039;-72
2023/07/16 07:18:49;;;;;;;4.82;1.10;;;;;;;26.89;56.60;96832.31;4940249;29;20043;-70
2023/07/16 07:21:15;;;;;;;3.13;0.93;;;;;;;27.01;56.54;96834.13;4940660;28;20105;-70
2023/07/16 07:23:40;;;;;;;2.80;1.20;;;;;;;26.30;58.77;96844.53;4928994;29;20404;-69
2023/07/16 07:26:06;;;;;;;2.47;1.00;;;;;;;25.70;60.88;96859.91;4948215;28;20101;-68
2023/07/16 07:28:31;;;;;;;3.50;1.48;;;;;;;26.24;60.00;96854.06;4960219;28;20046;-70
2023/07/16 07:30:56;;;;;;;2.55;1.05;;;;;;;25.57;61.12;96856.44;4965161;28;20039;-70
2023/07/16 07:33:22;;;;;;;1.92;0.93;;;;;;;25.06;63.88;96859.66;4959234;28;20050;-68
2023/07/16 07:35:47;;;;;;;1.95;0.90;;;;;;;26.18;61.80;96864.34;4965017;28;20082;-68
2023/07/16 07:38:13;;;;;;;2.38;1.00;;;;;;;25.61;60.56;96856.31;4961095;28;20523;-70
2023/07/16 07:40:38;;;;;;;1.48;0.88;;;;;;;24.88;61.60;96860.34;4974559;28;20519;-71
2023/07/16 07:43:04;;;;;;;3.13;1.10;;;;;;;25.75;60.71;96847.28;4955474;28;20066;-73
2023/07/16 07:45:29;;;;;;;2.63;0.98;;;;;;;26.20;56.68;96839.38;4970791;28;20466;-70
2023/07/16 07:47:54;;;;;;;2.50;1.30;;;;;;;27.46;52.49;96828.81;4949229;28;20393;-70
2023/07/16 07:50:20;;;;;;;4.70;1.23;;;;;;;28.11;49.57;96839.66;4936555;29;20488;-70
2023/07/16 07:52:46;;;;;;;3.13;0.82;;;;;;;28.81;45.71;96836.41;4950129;29;20054;-71
2023/07/16 07:55:11;;;;;;;3.90;1.13;;;;;;;28.86;45.59;96846.97;4927246;29;20555;-70
2023/07/16 07:57:36;;;;;;;7.05;1.35;;;;;;;27.91;45.46;96841.06;4932688;29;20050;-70
2023/07/16 08:00:03;;;;;;;2.33;0.90;;;;;;;28.87;43.09;96840.06;4928215;29;20066;-72
2023/07/16 08:02:28;;;;;;;2.55;0.90;;;;;;;30.08;40.52;96851.38;4944129;29;20049;-72
2023/07/16 08:04:54;;;;;;;2.90;1.05;;;;;;;29.37;40.98;96850.66;4944501;29;20039;-70
2023/07/16 08:07:21;;;;;;;3.72;1.20;;;;;;;29.60;41.51;96853.78;4941069;29;20091;-70
2023/07/16 08:09:47;;;;;;;2.33;0.80;;;;;;;28.67;42.76;96845.63;4944343;29;20106;-70
2023/07/16 08:12:13;;;;;;;3.33;1.05;;;;;;;28.85;43.34;96853.88;4939993;29;20095;-71
2023/07/16 08:14:38;;;;;;;2.20;0.98;;;;;;;29.00;42.10;96841.81;4945309;29;20130;-70
2023/07/16 08:17:04;;;;;;;3.65;1.40;;;;;;;28.30;43.74;96841.06;4941837;29;20568;-72
2023/07/16 08:19:29;;;;;;;3.25;1.10;;;;;;;28.66;44.05;96853.28;4942304;28;20054;-70
2023/07/16 08:21:55;;;;;;;4.13;1.40;;;;;;;29.00;42.68;96848.22;4971116;28;20129;-70
2023/07/16 08:24:20;;;;;;;3.38;1.02;;;;;;;29.35;42.53;96841.88;4945950;28;20718;-70
2023/07/16 08:26:46;;;;;;;3.90;1.27;;;;;;;29.73;41.82;96846.53;4958362;28;20042;-69
2023/07/16 08:29:11;;;;;;;2.45;1.05;;;;;;;28.78;42.77;96848.63;4976327;28;20038;-70
2023/07/16 08:31:37;;;;;;;3.28;1.10;;;;;;;28.87;43.43;96834.44;4945944;28;20399;-70
2023/07/16 08:34:02;;;;;;;2.17;1.00;;;;;;;28.71;43.35;96830.06;4949769;28;20070;-71
2023/07/16 08:36:27;;;;;;;3.80;1.15;;;;;;;27.91;45.13;96821.38;4966161;28;20091;-70
2023/07/16 08:38:53;;;;;;;3.75;1.02;;;;;;;27.59;44.71;96828.59;4964312;28;20049;-70
2023/07/16 08:41:18;;;;;;;4.65;1.30;;;;;;;26.36;47.51;96818.63;4958777;28;20055;-70
2023/07/16 08:43:47;;;;;;;3.38;1.08;;;;;;;26.12;48.43;96822.84;4942240;28;20042;-72
2023/07/16 08:46:13;;;;;;;3.83;1.42;;;;;;;26.16;49.30;96813.50;4958982;28;20128;-69
2023/07/16 08:48:38;;;;;;;3.30;1.10;;;;;;;25.51;50.85;96822.59;4963561;28;20043;-70
2023/07/16 08:51:06;;;;;;;4.28;1.13;;;;;;;25.27;53.55;96818.81;4941457;28;20063;-72
2023/07/16 08:53:31;;;;;;;4.25;1.30;;;;;;;25.24;54.08;96822.50;4943890;28;20504;-72
2023/07/16 08:55:57;;;;;;;4.13;1.20;;;;;;;25.98;52.22;96826.28;4944664;28;20101;-70
2023/07/16 08:58:24;;;;;;;3.38;1.45;;;;;;;26.43;50.54;96832.34;4938710;28;20050;-69
2023/07/16 09:00:50;;;;;;;4.68;1.48;;;;;;;26.17;50.77;96838.31;4935370;28;20054;-70
2023/07/16 09:03:16;;;;;;;2.60;0.90;;;;;;;27.36;47.33;96835.75;4940624;28;20038;-70
2023/07/16 09:05:44;;;;;;;3.20;1.30;;;;;;;28.27;45.46;96827.16;4929293;28;20053;-69
2023/07/16 09:08:10;;;;;;;4.18;1.23;;;;;;;28.49;44.72;96843.72;4957697;28;20043;-70
2023/07/16 09:10:35;;;;;;;4.55;1.10;;;;;;;28.14;45.64;96842.28;4961585;28;20062;-70
2023/07/16 09:13:01;;;;;;;3.25;1.20;;;;;;;27.71;45.41;96850.06;4961727;28;20122;-69
2023/07/16 09:15:28;;;;;;;2.65;1.00;;;;;;;26.76;48.23;96838.13;4955427;28;20168;-70
2023/07/16 09:17:54;;;;;;;5.20;2.15;;;;;;;27.25;47.66;96851.06;4960353;28;20043;-70
2023/07/16 09:20:20;;;;;;;3.53;1.20;;;;;;;26.62;49.36;96862.00;4936168;29;20079;-70
2023/07/16 09:22:47;;;;;;;5.20;1.35;;;;;;;27.17;47.90;96843.44;4942431;29;20130;-68
2023/07/16 09:25:13;;;;;;;5.38;1.30;;;;;;;27.19;48.57;96838.09;4940961;28;20041;-69
2023/07/16 09:27:38;;;;;;;2.72;1.30;;;;;;;26.34;50.19;96838.75;4952603;28;20438;-69
2023/07/16 09:30:14;;;;;;;4.60;1.20;;;;;;;26.39;51.05;96837.38;4958384;28;20053;-71
2023/07/16 09:32:40;;;;;;;3.83;1.33;;;;;;;25.58;52.76;96824.34;4958747;28;20038;-69
2023/07/16 09:35:16;;;;;;;4.82;1.45;;;;;;;25.80;52.24;96820.63;4937050;28;20046;-70
2023/07/16 09:37:41;;;;;;;2.15;1.35;;;;;;;25.45;53.28;96829.31;4920069;29;20047;-69
2023/07/16 09:40:09;;;;;;;4.05;1.63;;;;;;;25.46;53.72;96816.84;4937198;28;20050;-70
2023/07/16 09:42:42;;;;;;;2.97;1.30;;;;;;;25.01;55.00;96810.56;4942083;28;20130;-69
2023/07/16 09:45:19;;;;;;;3.42;1.00;;;;;;;24.58;56.89;96821.44;4937726;28;20070;-69
2023/07/16 09:47:45;;;;;;;5.03;1.50;;;;;;;24.26;58.42;96833.00;4920662;29;20525;-70
2023/07/16 09:50:11;;;;;;;4.35;1.77;;;;;;;24.90;58.09;96829.84;4933986;29;20082;-69
2023/07/16 09:52:37;;;;;;;3.97;1.23;;;;;;;25.32;58.16;96827.41;4923346;29;20047;-70
2023/07/16 09:55:03;;;;;;;5.45;1.60;;;;;;;26.12;53.51;96825.66;4910634;28;20040;-70
2023/07/16 09:57:35;;;;;;;3.65;1.40;;;;;;;26.17;53.29;96823.50;4943778;28;20051;-68
2023/07/16 10:00:04;;;;;;;5.78;1.50;;;;;;;26.02;52.57;96824.13;4934941;28;20054;-69
2023/07/16 10:02:32;;;;;;;;;;;;;;;26.00;52.19;96826.63;4945345;28;20047;-69
2023/07/16 10:04:58;;;;;;;3.65;1.13;;;;;;;26.49;50.81;96824.88;4950696;28;19914;-70
2023/07/16 10:07:26;;;;;;;4.93;1.67;;;;;;;26.23;50.80;96841.25;4943188;28;20834;-69
2023/07/16 10:09:56;;;;;;;2.28;1.20;;;;;;;26.25;51.10;96831.16;4956931;28;20523;-69
2023/07/16 10:12:26;;;;;;;2.20;1.10;;;;;;;26.36;50.19;96841.88;4941582;28;20063;-72
2023/07/16 10:14:58;;;;;;;;;;;;;;;26.46;48.57;96840.63;4945676;29;20047;-69
2023/07/16 10:17:25;;;;;;;2.03;1.10;;;;;;;26.46;50.27;96834.22;4940791;29;19915;-70
2023/07/16 10:19:59;;;;;;;4.57;1.40;;;;;;;26.63;49.38;96831.88;4945494;28;20059;-70
2023/07/16 10:22:39;;;;;;;6.85;1.50;;;;;;;26.23;50.78;96828.00;4940437;29;20047;-70
2023/07/16 10:25:18;;;;;;;3.63;1.42;;;;;;;25.23;53.75;96834.94;4942732;28;20133;-70
2023/07/16 10:27:49;;;;;;;4.63;1.33;;;;;;;25.62;51.70;96827.78;4939099;28;20051;-70
2023/07/16 10:30:16;;;;;;;2.95;1.23;;;;;;;25.87;52.53;96826.72;4960269;28;20388;-70
2023/07/16 10:32:42;;;;;;;3.22;1.40;;;;;;;26.14;51.41;96822.41;4964720;28;20039;-70
2023/07/16 10:35:08;;;;;;;2.38;0.88;;;;;;;26.13;51.38;96826.47;4941868;28;20049;-70
2023/07/16 10:37:34;;;;;;;5.88;2.95;;;;;;;25.85;52.33;96829.22;4937355;28;20070;-68
2023/07/16 10:40:03;;;;;;;2.35;1.30;;;;;;;26.39;51.65;96840.94;4926831;29;20047;-68
2023/07/16 10:42:29;;;;;;;2.75;1.20;;;;;;;26.37;51.69;96832.22;4931558;28;20045;-68
2023/07/16 10:44:57;;;;;;;4.32;1.42;;;;;;;26.24;52.33;96826.00;4946943;28;20044;-69
2023/07/16 10:47:29;;;;;;;4.18;1.83;;;;;;;25.62;54.14;96841.03;4938301;29;20811;-70
2023/07/16 10:49:54;;;;;;;4.38;1.58;;;;;;;25.79;54.04;96839.50;4916971;29;20050;-69
2023/07/16 10:52:24;;;;;;;3.50;1.20;;;;;;;26.33;53.18;96840.03;4920408;29;20039;-71
2023/07/16 10:54:54;;;;;;;3.83;1.67;;;;;;;26.28;52.51;96835.81;4926168;29;20102;-71
2023/07/16 10:57:20;;;;;;;3.30;1.30;;;;;;;26.15;52.84;96832.38;4919915;29;20040;-68
2023/07/16 10:59:47;;;;;;;3.00;1.15;;;;;;;26.26;53.04;96837.53;4938860;29;20039;-70
2023/07/16 11:02:14;;;;;;;2.72;1.40;;;;;;;26.07;53.51;96845.97;4939988;29;20141;-69
2023/07/16 11:04:40;;;;;;;5.38;2.67;;;;;;;26.09;53.18;96843.47;4943028;29;20032;-69
2023/07/16 11:07:13;;;;;;;3.65;1.35;;;;;;;26.22;51.92;96837.69;4939732;29;20130;-68
2023/07/16 11:09:48;;;;;;;3.10;1.35;;;;;;;25.43;54.26;96840.22;4927119;29;20129;-70
2023/07/16 11:12:15;;;;;;;4.03;1.40;;;;;;;26.15;53.21;96832.38;4932930;28;20131;-69
2023/07/16 11:14:45;;;;;;;4.00;1.40;;;;;;;26.58;53.60;96833.28;4925429;29;20036;-68
2023/07/16 11:17:11;;;;;;;7.53;1.73;;;;;;;27.13;51.20;96840.78;4920362;29;20106;-69
2023/07/16 11:19:37;;;;;;;4.80;1.27;;;;;;;27.20;50.68;96831.25;4940692;29;20642;-69
2023/07/16 11:22:04;;;;;;;4.15;1.63;;;;;;;27.26;49.20;96827.34;4942580;29;20130;-69
2023/07/16 11:24:44;;;;;;;3.30;1.40;;;;;;;27.12;50.24;96819.56;4944201;29;20047;-69
2023/07/16 11:27:17;;;;;;;4.63;1.30;;;;;;;27.44;50.33;96820.84;4942461;28;20070;-70